sensor_id;sensor_type;location;lat;lon;timestamp;P1;durP1;ratioP1;P2;durP2;ratioP2
47844;SDS011;33605;48.822;8.796;2022-08-19T00:00:15;15.77;;;13.90;;
47844;SDS011;33605;48.822;8.796;2022-08-19T00:02:42;16.80;;;12.70;;
47844;SDS011;33605;48.822;8.796;2022-08-19T00:05:09;17.30;;;13.50;;
47844;SDS011;33605;48.822;8.796;2022-08-19T00:07:36;16.73;;;13.97;;
47844;SDS011;33605;48.822;8.796;2022-08-19T00:10:04;16.83;;;13.40;;
47844;SDS011;33605;48.822;8.796;2022-08-19T00:12:30;16.47;;;13.00;;
47844;SDS011;33605;48.822;8.796;2022-08-19T00:14:56;13.90;;;12.03;;
47844;SDS011;33605;48.822;8.796;2022-08-19T00:17:22;13.77;;;12.27;;
47844;SDS011;33605;48.822;8.796;2022-08-19T00:19:48;14.83;;;13.27;;
47844;SDS011;33605;48.822;8.796;2022-08-19T00:22:14;17.07;;;14.70;;
47844;SDS011;33605;48.822;8.796;2022-08-19T00:24:42;17.50;;;13.73;;
47844;SDS011;33605;48.822;8.796;2022-08-19T00:27:08;20.47;;;14.50;;
47844;SDS011;33605;48.822;8.796;2022-08-19T00:29:34;16.73;;;13.20;;
47844;SDS011;33605;48.822;8.796;2022-08-19T00:32:01;17.03;;;15.10;;
47844;SDS011;33605;48.822;8.796;2022-08-19T00:34:27;17.73;;;13.80;;
47844;SDS011;33605;48.822;8.796;2022-08-19T00:36:54;15.67;;;14.07;;
47844;SDS011;33605;48.822;8.796;2022-08-19T00:39:20;15.83;;;14.10;;
47844;SDS011;33605;48.822;8.796;2022-08-19T00:41:47;21.13;;;14.97;;
47844;SDS011;33605;48.822;8.796;2022-08-19T00:44:15;18.17;;;15.00;;
47844;SDS011;33605;48.822;8.796;2022-08-19T00:46:43;16.13;;;13.20;;
47844;SDS011;33605;48.822;8.796;2022-08-19T00:49:11;16.00;;;13.97;;
47844;SDS011;33605;48.822;8.796;2022-08-19T00:51:39;17.57;;;14.40;;
47844;SDS011;33605;48.822;8.796;2022-08-19T00:54:06;16.27;;;13.87;;
47844;SDS011;33605;48.822;8.796;2022-08-19T00:56:34;15.27;;;13.27;;
47844;SDS011;33605;48.822;8.796;2022-08-19T00:59:00;16.20;;;13.50;;
47844;SDS011;33605;48.822;8.796;2022-08-19T01:01:27;15.93;;;13.50;;
47844;SDS011;33605;48.822;8.796;2022-08-19T01:03:53;18.13;;;14.50;;
47844;SDS011;33605;48.822;8.796;2022-08-19T01:06:19;17.13;;;14.47;;
47844;SDS011;33605;48.822;8.796;2022-08-19T01:08:45;22.93;;;14.37;;
47844;SDS011;33605;48.822;8.796;2022-08-19T01:11:11;19.20;;;14.17;;
47844;SDS011;33605;48.822;8.796;2022-08-19T01:13:38;15.77;;;13.03;;
47844;SDS011;33605;48.822;8.796;2022-08-19T01:16:05;17.30;;;13.17;;
47844;SDS011;33605;48.822;8.796;2022-08-19T01:18:32;15.13;;;13.53;;
47844;SDS011;33605;48.822;8.796;2022-08-19T01:21:05;19.70;;;15.20;;
47844;SDS011;33605;48.822;8.796;2022-08-19T01:23:33;15.83;;;13.57;;
47844;SDS011;33605;48.822;8.796;2022-08-19T01:26:13;16.30;;;14.60;;
47844;SDS011;33605;48.822;8.796;2022-08-19T01:28:40;17.53;;;15.50;;
47844;SDS011;33605;48.822;8.796;2022-08-19T01:31:08;17.30;;;13.67;;
47844;SDS011;33605;48.822;8.796;2022-08-19T01:33:36;19.17;;;15.30;;
47844;SDS011;33605;48.822;8.796;2022-08-19T01:36:38;19.73;;;14.90;;
47844;SDS011;33605;48.822;8.796;2022-08-19T01:38:55;17.80;;;14.43;;
47844;SDS011;33605;48.822;8.796;2022-08-19T01:41:23;15.80;;;14.10;;
47844;SDS011;33605;48.822;8.796;2022-08-19T01:43:49;18.73;;;15.93;;
47844;SDS011;33605;48.822;8.796;2022-08-19T01:46:16;18.80;;;14.53;;
47844;SDS011;33605;48.822;8.796;2022-08-19T01:48:45;15.80;;;14.10;;
47844;SDS011;33605;48.822;8.796;2022-08-19T01:51:11;17.57;;;15.17;;
47844;SDS011;33605;48.822;8.796;2022-08-19T01:53:38;18.53;;;15.73;;
47844;SDS011;33605;48.822;8.796;2022-08-19T01:56:05;17.83;;;15.00;;
47844;SDS011;33605;48.822;8.796;2022-08-19T01:58:33;16.13;;;14.43;;
47844;SDS011;33605;48.822;8.796;2022-08-19T02:01:01;16.43;;;13.63;;
47844;SDS011;33605;48.822;8.796;2022-08-19T02:03:27;15.53;;;13.90;;
47844;SDS011;33605;48.822;8.796;2022-08-19T02:06:00;16.40;;;14.37;;
47844;SDS011;33605;48.822;8.796;2022-08-19T02:08:28;19.20;;;15.93;;
47844;SDS011;33605;48.822;8.796;2022-08-19T02:10:54;18.23;;;15.20;;
47844;SDS011;33605;48.822;8.796;2022-08-19T02:13:20;18.40;;;15.37;;
47844;SDS011;33605;48.822;8.796;2022-08-19T02:15:46;22.73;;;15.17;;
47844;SDS011;33605;48.822;8.796;2022-08-19T02:18:12;19.23;;;15.03;;
47844;SDS011;33605;48.822;8.796;2022-08-19T02:20:39;16.63;;;13.40;;
47844;SDS011;33605;48.822;8.796;2022-08-19T02:23:06;16.13;;;14.43;;
47844;SDS011;33605;48.822;8.796;2022-08-19T02:25:32;20.90;;;16.53;;
47844;SDS011;33605;48.822;8.796;2022-08-19T02:27:59;16.70;;;14.50;;
47844;SDS011;33605;48.822;8.796;2022-08-19T02:30:25;18.10;;;14.67;;
47844;SDS011;33605;48.822;8.796;2022-08-19T02:32:51;18.83;;;16.03;;
47844;SDS011;33605;48.822;8.796;2022-08-19T02:35:17;19.43;;;16.13;;
47844;SDS011;33605;48.822;8.796;2022-08-19T02:37:44;18.43;;;16.23;;
47844;SDS011;33605;48.822;8.796;2022-08-19T02:40:29;17.87;;;15.97;;
47844;SDS011;33605;48.822;8.796;2022-08-19T02:42:59;19.90;;;16.67;;
47844;SDS011;33605;48.822;8.796;2022-08-19T02:45:25;20.13;;;16.83;;
47844;SDS011;33605;48.822;8.796;2022-08-19T02:47:52;18.30;;;16.37;;
47844;SDS011;33605;48.822;8.796;2022-08-19T02:50:18;21.70;;;17.00;;
47844;SDS011;33605;48.822;8.796;2022-08-19T02:52:44;18.17;;;16.13;;
47844;SDS011;33605;48.822;8.796;2022-08-19T02:55:10;20.50;;;16.70;;
47844;SDS011;33605;48.822;8.796;2022-08-19T02:57:36;18.30;;;16.30;;
47844;SDS011;33605;48.822;8.796;2022-08-19T03:00:06;19.20;;;16.33;;
47844;SDS011;33605;48.822;8.796;2022-08-19T03:02:33;20.27;;;17.53;;
47844;SDS011;33605;48.822;8.796;2022-08-19T03:04:59;21.13;;;17.50;;
47844;SDS011;33605;48.822;8.796;2022-08-19T03:07:26;23.00;;;17.10;;
47844;SDS011;33605;48.822;8.796;2022-08-19T03:09:52;22.50;;;18.73;;
47844;SDS011;33605;48.822;8.796;2022-08-19T03:12:18;20.90;;;16.90;;
47844;SDS011;33605;48.822;8.796;2022-08-19T03:14:44;21.97;;;17.40;;
47844;SDS011;33605;48.822;8.796;2022-08-19T03:17:11;20.10;;;17.53;;
47844;SDS011;33605;48.822;8.796;2022-08-19T03:19:37;20.70;;;17.50;;
47844;SDS011;33605;48.822;8.796;2022-08-19T03:22:03;15.50;;;14.00;;
47844;SDS011;33605;48.822;8.796;2022-08-19T03:24:30;19.10;;;16.63;;
47844;SDS011;33605;48.822;8.796;2022-08-19T03:26:57;19.37;;;16.53;;
47844;SDS011;33605;48.822;8.796;2022-08-19T03:29:24;19.83;;;17.17;;
47844;SDS011;33605;48.822;8.796;2022-08-19T03:31:50;16.80;;;15.00;;
47844;SDS011;33605;48.822;8.796;2022-08-19T03:34:27;25.83;;;16.73;;
47844;SDS011;33605;48.822;8.796;2022-08-19T03:36:53;20.43;;;16.80;;
47844;SDS011;33605;48.822;8.796;2022-08-19T03:39:20;19.20;;;16.63;;
47844;SDS011;33605;48.822;8.796;2022-08-19T03:41:47;19.83;;;17.47;;
47844;SDS011;33605;48.822;8.796;2022-08-19T03:44:16;23.13;;;19.57;;
47844;SDS011;33605;48.822;8.796;2022-08-19T03:46:43;19.87;;;17.73;;
47844;SDS011;33605;48.822;8.796;2022-08-19T03:49:09;19.80;;;17.20;;
47844;SDS011;33605;48.822;8.796;2022-08-19T03:51:36;16.47;;;14.70;;
47844;SDS011;33605;48.822;8.796;2022-08-19T03:54:05;20.47;;;18.27;;
47844;SDS011;33605;48.822;8.796;2022-08-19T03:56:33;19.07;;;15.77;;
47844;SDS011;33605;48.822;8.796;2022-08-19T03:58:59;20.80;;;17.70;;
47844;SDS011;33605;48.822;8.796;2022-08-19T04:01:26;19.93;;;16.80;;
47844;SDS011;33605;48.822;8.796;2022-08-19T04:03:53;18.97;;;16.77;;
47844;SDS011;33605;48.822;8.796;2022-08-19T04:06:20;21.10;;;18.10;;
47844;SDS011;33605;48.822;8.796;2022-08-19T04:08:47;21.60;;;18.10;;
47844;SDS011;33605;48.822;8.796;2022-08-19T04:11:18;24.50;;;18.33;;
47844;SDS011;33605;48.822;8.796;2022-08-19T04:13:47;19.73;;;17.60;;
47844;SDS011;33605;48.822;8.796;2022-08-19T04:16:13;18.33;;;16.33;;
47844;SDS011;33605;48.822;8.796;2022-08-19T04:18:40;17.40;;;15.53;;
47844;SDS011;33605;48.822;8.796;2022-08-19T04:21:06;20.83;;;18.10;;
47844;SDS011;33605;48.822;8.796;2022-08-19T04:23:33;19.47;;;17.53;;
47844;SDS011;33605;48.822;8.796;2022-08-19T04:26:00;22.00;;;19.30;;
47844;SDS011;33605;48.822;8.796;2022-08-19T04:28:27;19.87;;;16.10;;
47844;SDS011;33605;48.822;8.796;2022-08-19T04:30:54;18.60;;;16.30;;
47844;SDS011;33605;48.822;8.796;2022-08-19T04:33:21;18.70;;;16.80;;
47844;SDS011;33605;48.822;8.796;2022-08-19T04:35:48;19.27;;;17.03;;
47844;SDS011;33605;48.822;8.796;2022-08-19T04:38:15;23.47;;;18.13;;
47844;SDS011;33605;48.822;8.796;2022-08-19T04:40:45;25.33;;;21.20;;
47844;SDS011;33605;48.822;8.796;2022-08-19T04:43:31;20.60;;;18.40;;
47844;SDS011;33605;48.822;8.796;2022-08-19T04:45:57;18.27;;;16.30;;
47844;SDS011;33605;48.822;8.796;2022-08-19T04:48:24;19.57;;;17.47;;
47844;SDS011;33605;48.822;8.796;2022-08-19T04:50:57;21.77;;;18.17;;
47844;SDS011;33605;48.822;8.796;2022-08-19T04:53:27;23.53;;;20.40;;
47844;SDS011;33605;48.822;8.796;2022-08-19T04:55:55;20.30;;;17.57;;
47844;SDS011;33605;48.822;8.796;2022-08-19T04:58:21;21.00;;;18.20;;
47844;SDS011;33605;48.822;8.796;2022-08-19T05:00:47;24.23;;;19.37;;
47844;SDS011;33605;48.822;8.796;2022-08-19T05:03:14;21.67;;;17.93;;
47844;SDS011;33605;48.822;8.796;2022-08-19T05:05:42;22.90;;;20.43;;
47844;SDS011;33605;48.822;8.796;2022-08-19T05:08:08;17.20;;;15.50;;
47844;SDS011;33605;48.822;8.796;2022-08-19T05:10:35;20.30;;;18.07;;
47844;SDS011;33605;48.822;8.796;2022-08-19T05:13:02;23.67;;;18.60;;
47844;SDS011;33605;48.822;8.796;2022-08-19T05:15:28;21.20;;;18.67;;
47844;SDS011;33605;48.822;8.796;2022-08-19T05:17:54;23.17;;;18.50;;
47844;SDS011;33605;48.822;8.796;2022-08-19T05:20:39;21.20;;;18.87;;
47844;SDS011;33605;48.822;8.796;2022-08-19T05:23:24;21.53;;;19.23;;
47844;SDS011;33605;48.822;8.796;2022-08-19T05:25:50;24.47;;;19.83;;
47844;SDS011;33605;48.822;8.796;2022-08-19T05:28:17;21.90;;;18.63;;
47844;SDS011;33605;48.822;8.796;2022-08-19T05:30:43;21.63;;;18.10;;
47844;SDS011;33605;48.822;8.796;2022-08-19T05:33:10;23.70;;;19.07;;
47844;SDS011;33605;48.822;8.796;2022-08-19T05:35:37;23.30;;;20.03;;
47844;SDS011;33605;48.822;8.796;2022-08-19T05:38:04;20.43;;;17.73;;
47844;SDS011;33605;48.822;8.796;2022-08-19T05:40:33;24.20;;;20.17;;
47844;SDS011;33605;48.822;8.796;2022-08-19T05:43:01;22.50;;;18.83;;
47844;SDS011;33605;48.822;8.796;2022-08-19T05:45:27;22.57;;;20.17;;
47844;SDS011;33605;48.822;8.796;2022-08-19T05:47:53;21.23;;;18.57;;
47844;SDS011;33605;48.822;8.796;2022-08-19T05:50:19;26.47;;;20.60;;
47844;SDS011;33605;48.822;8.796;2022-08-19T05:52:45;20.50;;;18.27;;
47844;SDS011;33605;48.822;8.796;2022-08-19T05:55:12;26.47;;;19.07;;
47844;SDS011;33605;48.822;8.796;2022-08-19T05:57:38;23.93;;;18.17;;
47844;SDS011;33605;48.822;8.796;2022-08-19T06:00:05;23.67;;;19.83;;
47844;SDS011;33605;48.822;8.796;2022-08-19T06:02:36;20.90;;;17.50;;
47844;SDS011;33605;48.822;8.796;2022-08-19T06:05:03;20.27;;;17.87;;
47844;SDS011;33605;48.822;8.796;2022-08-19T06:07:30;21.27;;;17.27;;
47844;SDS011;33605;48.822;8.796;2022-08-19T06:09:57;21.40;;;18.73;;
47844;SDS011;33605;48.822;8.796;2022-08-19T06:12:23;23.00;;;19.47;;
47844;SDS011;33605;48.822;8.796;2022-08-19T06:14:54;19.93;;;17.77;;
47844;SDS011;33605;48.822;8.796;2022-08-19T06:17:20;23.43;;;17.90;;
47844;SDS011;33605;48.822;8.796;2022-08-19T06:19:50;21.20;;;18.13;;
47844;SDS011;33605;48.822;8.796;2022-08-19T06:22:17;24.30;;;18.90;;
47844;SDS011;33605;48.822;8.796;2022-08-19T06:24:43;24.07;;;19.57;;
47844;SDS011;33605;48.822;8.796;2022-08-19T06:27:09;24.90;;;19.97;;
47844;SDS011;33605;48.822;8.796;2022-08-19T06:29:35;21.17;;;18.27;;
47844;SDS011;33605;48.822;8.796;2022-08-19T06:32:01;20.87;;;18.40;;
47844;SDS011;33605;48.822;8.796;2022-08-19T06:34:29;19.80;;;17.70;;
47844;SDS011;33605;48.822;8.796;2022-08-19T06:36:56;20.43;;;18.20;;
47844;SDS011;33605;48.822;8.796;2022-08-19T06:39:25;21.93;;;18.90;;
47844;SDS011;33605;48.822;8.796;2022-08-19T06:41:53;22.07;;;18.40;;
47844;SDS011;33605;48.822;8.796;2022-08-19T06:44:20;19.73;;;15.93;;
47844;SDS011;33605;48.822;8.796;2022-08-19T06:46:47;21.23;;;18.97;;
47844;SDS011;33605;48.822;8.796;2022-08-19T06:49:14;20.00;;;17.77;;
47844;SDS011;33605;48.822;8.796;2022-08-19T06:51:41;23.43;;;18.80;;
47844;SDS011;33605;48.822;8.796;2022-08-19T06:54:07;21.53;;;19.00;;
47844;SDS011;33605;48.822;8.796;2022-08-19T06:56:33;19.63;;;17.53;;
47844;SDS011;33605;48.822;8.796;2022-08-19T06:59:00;19.87;;;17.53;;
47844;SDS011;33605;48.822;8.796;2022-08-19T07:01:27;21.17;;;17.70;;
47844;SDS011;33605;48.822;8.796;2022-08-19T07:03:53;20.10;;;17.80;;
47844;SDS011;33605;48.822;8.796;2022-08-19T07:06:19;19.67;;;17.33;;
47844;SDS011;33605;48.822;8.796;2022-08-19T07:08:45;18.97;;;16.90;;
47844;SDS011;33605;48.822;8.796;2022-08-19T07:11:13;20.93;;;17.60;;
47844;SDS011;33605;48.822;8.796;2022-08-19T07:13:40;22.10;;;18.10;;
47844;SDS011;33605;48.822;8.796;2022-08-19T07:16:10;21.33;;;18.20;;
47844;SDS011;33605;48.822;8.796;2022-08-19T07:18:37;19.40;;;16.67;;
47844;SDS011;33605;48.822;8.796;2022-08-19T07:21:07;19.40;;;15.90;;
47844;SDS011;33605;48.822;8.796;2022-08-19T07:23:33;19.63;;;17.10;;
47844;SDS011;33605;48.822;8.796;2022-08-19T07:26:23;18.60;;;16.10;;
47844;SDS011;33605;48.822;8.796;2022-08-19T07:28:46;18.33;;;16.40;;
47844;SDS011;33605;48.822;8.796;2022-08-19T07:31:13;20.90;;;16.90;;
47844;SDS011;33605;48.822;8.796;2022-08-19T07:33:40;19.80;;;16.50;;
47844;SDS011;33605;48.822;8.796;2022-08-19T07:36:08;21.17;;;16.90;;
47844;SDS011;33605;48.822;8.796;2022-08-19T07:38:38;17.60;;;15.80;;
47844;SDS011;33605;48.822;8.796;2022-08-19T07:41:05;19.33;;;15.93;;
47844;SDS011;33605;48.822;8.796;2022-08-19T07:43:31;16.03;;;14.40;;
47844;SDS011;33605;48.822;8.796;2022-08-19T07:45:57;16.27;;;14.53;;
47844;SDS011;33605;48.822;8.796;2022-08-19T07:48:24;18.20;;;15.70;;
47844;SDS011;33605;48.822;8.796;2022-08-19T07:50:52;17.03;;;15.10;;
47844;SDS011;33605;48.822;8.796;2022-08-19T07:53:18;17.60;;;15.63;;
47844;SDS011;33605;48.822;8.796;2022-08-19T07:55:44;18.00;;;16.10;;
47844;SDS011;33605;48.822;8.796;2022-08-19T07:58:12;17.80;;;15.03;;
47844;SDS011;33605;48.822;8.796;2022-08-19T08:00:38;19.83;;;15.93;;
47844;SDS011;33605;48.822;8.796;2022-08-19T08:03:04;18.40;;;16.60;;
47844;SDS011;33605;48.822;8.796;2022-08-19T08:05:30;20.03;;;17.50;;
47844;SDS011;33605;48.822;8.796;2022-08-19T08:08:15;19.60;;;17.27;;
47844;SDS011;33605;48.822;8.796;2022-08-19T08:11:07;16.73;;;15.00;;
47844;SDS011;33605;48.822;8.796;2022-08-19T08:13:33;17.00;;;15.27;;
47844;SDS011;33605;48.822;8.796;2022-08-19T08:16:00;21.40;;;16.63;;
47844;SDS011;33605;48.822;8.796;2022-08-19T08:18:26;15.70;;;14.20;;
47844;SDS011;33605;48.822;8.796;2022-08-19T08:20:52;16.57;;;14.97;;
47844;SDS011;33605;48.822;8.796;2022-08-19T08:23:19;17.40;;;14.80;;
47844;SDS011;33605;48.822;8.796;2022-08-19T08:25:48;19.70;;;13.67;;
47844;SDS011;33605;48.822;8.796;2022-08-19T08:28:15;19.03;;;14.97;;
47844;SDS011;33605;48.822;8.796;2022-08-19T08:30:41;17.80;;;14.07;;
47844;SDS011;33605;48.822;8.796;2022-08-19T08:33:08;15.10;;;12.90;;
47844;SDS011;33605;48.822;8.796;2022-08-19T08:35:34;15.90;;;14.40;;
47844;SDS011;33605;48.822;8.796;2022-08-19T08:38:00;15.60;;;14.00;;
47844;SDS011;33605;48.822;8.796;2022-08-19T08:40:30;16.50;;;14.30;;
47844;SDS011;33605;48.822;8.796;2022-08-19T08:43:07;13.43;;;12.03;;
47844;SDS011;33605;48.822;8.796;2022-08-19T08:45:34;13.67;;;12.20;;
47844;SDS011;33605;48.822;8.796;2022-08-19T08:48:04;18.73;;;14.17;;
47844;SDS011;33605;48.822;8.796;2022-08-19T08:50:36;15.73;;;14.10;;
47844;SDS011;33605;48.822;8.796;2022-08-19T08:53:05;14.80;;;13.20;;
47844;SDS011;33605;48.822;8.796;2022-08-19T08:55:31;15.30;;;13.70;;
47844;SDS011;33605;48.822;8.796;2022-08-19T08:58:03;14.90;;;13.40;;
47844;SDS011;33605;48.822;8.796;2022-08-19T09:00:32;14.07;;;12.77;;
47844;SDS011;33605;48.822;8.796;2022-08-19T09:02:58;20.10;;;14.00;;
47844;SDS011;33605;48.822;8.796;2022-08-19T09:08:16;13.27;;;11.90;;
47844;SDS011;33605;48.822;8.796;2022-08-19T09:15:37;17.37;;;13.70;;
47844;SDS011;33605;48.822;8.796;2022-08-19T09:18:04;12.37;;;11.10;;
47844;SDS011;33605;48.822;8.796;2022-08-19T09:20:31;12.53;;;11.33;;
47844;SDS011;33605;48.822;8.796;2022-08-19T09:22:57;13.57;;;12.20;;
47844;SDS011;33605;48.822;8.796;2022-08-19T09:25:24;13.37;;;11.70;;
47844;SDS011;33605;48.822;8.796;2022-08-19T09:27:50;13.53;;;12.13;;
47844;SDS011;33605;48.822;8.796;2022-08-19T09:30:25;12.40;;;11.23;;
47844;SDS011;33605;48.822;8.796;2022-08-19T09:32:52;13.43;;;12.13;;
47844;SDS011;33605;48.822;8.796;2022-08-19T09:35:19;12.63;;;11.43;;
47844;SDS011;33605;48.822;8.796;2022-08-19T09:37:47;12.67;;;11.37;;
47844;SDS011;33605;48.822;8.796;2022-08-19T09:40:14;13.63;;;12.23;;
47844;SDS011;33605;48.822;8.796;2022-08-19T09:42:40;16.80;;;12.20;;
47844;SDS011;33605;48.822;8.796;2022-08-19T09:45:08;16.80;;;10.33;;
47844;SDS011;33605;48.822;8.796;2022-08-19T09:47:34;15.30;;;11.17;;
47844;SDS011;33605;48.822;8.796;2022-08-19T09:50:03;13.93;;;10.73;;
47844;SDS011;33605;48.822;8.796;2022-08-19T09:52:30;11.83;;;10.70;;
47844;SDS011;33605;48.822;8.796;2022-08-19T09:54:56;11.93;;;10.73;;
47844;SDS011;33605;48.822;8.796;2022-08-19T09:57:22;12.30;;;10.70;;
47844;SDS011;33605;48.822;8.796;2022-08-19T09:59:48;11.73;;;10.57;;
47844;SDS011;33605;48.822;8.796;2022-08-19T10:02:14;11.60;;;10.50;;
47844;SDS011;33605;48.822;8.796;2022-08-19T10:04:40;11.10;;;9.83;;
47844;SDS011;33605;48.822;8.796;2022-08-19T10:07:25;10.70;;;9.70;;
47844;SDS011;33605;48.822;8.796;2022-08-19T10:09:51;11.53;;;10.33;;
47844;SDS011;33605;48.822;8.796;2022-08-19T10:12:17;12.33;;;10.37;;
47844;SDS011;33605;48.822;8.796;2022-08-19T10:14:43;10.70;;;9.70;;
47844;SDS011;33605;48.822;8.796;2022-08-19T10:17:10;10.47;;;9.40;;
47844;SDS011;33605;48.822;8.796;2022-08-19T10:19:36;10.57;;;8.90;;
47844;SDS011;33605;48.822;8.796;2022-08-19T10:22:06;10.63;;;9.23;;
47844;SDS011;33605;48.822;8.796;2022-08-19T10:24:33;9.73;;;8.80;;
47844;SDS011;33605;48.822;8.796;2022-08-19T10:26:59;8.97;;;8.00;;
47844;SDS011;33605;48.822;8.796;2022-08-19T10:29:28;10.47;;;8.40;;
47844;SDS011;33605;48.822;8.796;2022-08-19T10:31:54;8.97;;;8.00;;
47844;SDS011;33605;48.822;8.796;2022-08-19T10:34:21;12.90;;;10.30;;
47844;SDS011;33605;48.822;8.796;2022-08-19T10:36:47;9.13;;;8.30;;
47844;SDS011;33605;48.822;8.796;2022-08-19T10:39:14;9.73;;;8.83;;
47844;SDS011;33605;48.822;8.796;2022-08-19T10:41:40;11.17;;;10.00;;
47844;SDS011;33605;48.822;8.796;2022-08-19T10:44:09;10.70;;;9.70;;
47844;SDS011;33605;48.822;8.796;2022-08-19T10:46:37;9.43;;;8.53;;
47844;SDS011;33605;48.822;8.796;2022-08-19T10:49:05;9.50;;;8.07;;
47844;SDS011;33605;48.822;8.796;2022-08-19T10:51:31;9.57;;;8.67;;
47844;SDS011;33605;48.822;8.796;2022-08-19T10:54:17;8.33;;;7.37;;
47844;SDS011;33605;48.822;8.796;2022-08-19T10:56:44;10.10;;;8.43;;
47844;SDS011;33605;48.822;8.796;2022-08-19T10:59:16;12.13;;;8.10;;
47844;SDS011;33605;48.822;8.796;2022-08-19T11:01:43;7.60;;;6.67;;
47844;SDS011;33605;48.822;8.796;2022-08-19T11:04:10;8.60;;;7.70;;
47844;SDS011;33605;48.822;8.796;2022-08-19T11:06:39;8.10;;;6.80;;
47844;SDS011;33605;48.822;8.796;2022-08-19T11:09:06;12.07;;;8.90;;
47844;SDS011;33605;48.822;8.796;2022-08-19T11:11:32;9.43;;;8.43;;
47844;SDS011;33605;48.822;8.796;2022-08-19T11:14:00;9.90;;;7.30;;
47844;SDS011;33605;48.822;8.796;2022-08-19T11:16:26;8.23;;;7.53;;
47844;SDS011;33605;48.822;8.796;2022-08-19T11:18:56;8.70;;;7.37;;
47844;SDS011;33605;48.822;8.796;2022-08-19T11:21:28;7.30;;;6.60;;
47844;SDS011;33605;48.822;8.796;2022-08-19T11:23:56;8.60;;;7.30;;
47844;SDS011;33605;48.822;8.796;2022-08-19T11:26:23;8.97;;;7.50;;
47844;SDS011;33605;48.822;8.796;2022-08-19T11:28:50;8.60;;;7.80;;
47844;SDS011;33605;48.822;8.796;2022-08-19T11:31:20;8.30;;;7.50;;
47844;SDS011;33605;48.822;8.796;2022-08-19T11:33:46;9.40;;;8.40;;
47844;SDS011;33605;48.822;8.796;2022-08-19T11:36:16;8.80;;;7.47;;
47844;SDS011;33605;48.822;8.796;2022-08-19T11:38:42;8.00;;;6.90;;
47844;SDS011;33605;48.822;8.796;2022-08-19T11:41:08;8.57;;;6.63;;
47844;SDS011;33605;48.822;8.796;2022-08-19T11:43:35;7.33;;;6.43;;
47844;SDS011;33605;48.822;8.796;2022-08-19T11:46:05;7.47;;;6.87;;
47844;SDS011;33605;48.822;8.796;2022-08-19T11:48:31;6.50;;;5.70;;
47844;SDS011;33605;48.822;8.796;2022-08-19T11:50:57;6.10;;;5.60;;
47844;SDS011;33605;48.822;8.796;2022-08-19T11:53:23;8.20;;;6.13;;
47844;SDS011;33605;48.822;8.796;2022-08-19T11:55:50;7.40;;;6.80;;
47844;SDS011;33605;48.822;8.796;2022-08-19T11:58:17;7.20;;;6.50;;
47844;SDS011;33605;48.822;8.796;2022-08-19T12:00:43;6.80;;;6.20;;
47844;SDS011;33605;48.822;8.796;2022-08-19T12:03:10;7.43;;;6.70;;
47844;SDS011;33605;48.822;8.796;2022-08-19T12:05:37;7.30;;;6.60;;
47844;SDS011;33605;48.822;8.796;2022-08-19T12:08:04;6.93;;;6.30;;
47844;SDS011;33605;48.822;8.796;2022-08-19T12:10:30;7.63;;;6.93;;
47844;SDS011;33605;48.822;8.796;2022-08-19T12:12:56;6.97;;;6.37;;
47844;SDS011;33605;48.822;8.796;2022-08-19T12:15:22;7.80;;;6.80;;
47844;SDS011;33605;48.822;8.796;2022-08-19T12:17:48;7.10;;;6.50;;
47844;SDS011;33605;48.822;8.796;2022-08-19T12:20:14;12.10;;;7.30;;
47844;SDS011;33605;48.822;8.796;2022-08-19T12:22:42;7.43;;;6.73;;
47844;SDS011;33605;48.822;8.796;2022-08-19T12:25:09;7.40;;;6.50;;
47844;SDS011;33605;48.822;8.796;2022-08-19T12:27:36;6.53;;;5.90;;
47844;SDS011;33605;48.822;8.796;2022-08-19T12:30:03;6.30;;;5.67;;
47844;SDS011;33605;48.822;8.796;2022-08-19T12:32:29;6.40;;;5.90;;
47844;SDS011;33605;48.822;8.796;2022-08-19T12:34:55;6.97;;;6.27;;
47844;SDS011;33605;48.822;8.796;2022-08-19T12:37:21;7.60;;;5.40;;
47844;SDS011;33605;48.822;8.796;2022-08-19T12:39:47;6.63;;;6.10;;
47844;SDS011;33605;48.822;8.796;2022-08-19T12:42:14;6.63;;;6.00;;
47844;SDS011;33605;48.822;8.796;2022-08-19T12:44:40;6.30;;;5.70;;
47844;SDS011;33605;48.822;8.796;2022-08-19T12:47:07;6.33;;;5.83;;
47844;SDS011;33605;48.822;8.796;2022-08-19T12:49:33;6.70;;;6.20;;
47844;SDS011;33605;48.822;8.796;2022-08-19T12:52:02;6.23;;;5.67;;
47844;SDS011;33605;48.822;8.796;2022-08-19T12:54:28;8.17;;;6.83;;
47844;SDS011;33605;48.822;8.796;2022-08-19T12:56:55;6.80;;;6.20;;
47844;SDS011;33605;48.822;8.796;2022-08-19T12:59:21;7.33;;;6.73;;
47844;SDS011;33605;48.822;8.796;2022-08-19T13:01:47;8.17;;;7.23;;
47844;SDS011;33605;48.822;8.796;2022-08-19T13:04:13;8.60;;;7.90;;
47844;SDS011;33605;48.822;8.796;2022-08-19T13:06:40;8.23;;;7.53;;
47844;SDS011;33605;48.822;8.796;2022-08-19T13:09:07;10.80;;;7.90;;
47844;SDS011;33605;48.822;8.796;2022-08-19T13:11:33;10.60;;;8.07;;
47844;SDS011;33605;48.822;8.796;2022-08-19T13:14:00;8.37;;;7.27;;
47844;SDS011;33605;48.822;8.796;2022-08-19T13:16:26;7.87;;;7.07;;
47844;SDS011;33605;48.822;8.796;2022-08-19T13:18:53;8.90;;;8.10;;
47844;SDS011;33605;48.822;8.796;2022-08-19T13:21:20;8.53;;;7.53;;
47844;SDS011;33605;48.822;8.796;2022-08-19T13:23:47;8.33;;;7.63;;
47844;SDS011;33605;48.822;8.796;2022-08-19T13:26:14;8.43;;;7.73;;
47844;SDS011;33605;48.822;8.796;2022-08-19T13:28:40;8.17;;;7.47;;
47844;SDS011;33605;48.822;8.796;2022-08-19T13:31:26;7.40;;;6.70;;
47844;SDS011;33605;48.822;8.796;2022-08-19T13:34:11;9.23;;;8.33;;
47844;SDS011;33605;48.822;8.796;2022-08-19T13:36:38;7.93;;;7.33;;
47844;SDS011;33605;48.822;8.796;2022-08-19T13:39:05;8.20;;;7.40;;
47844;SDS011;33605;48.822;8.796;2022-08-19T13:41:32;7.40;;;6.80;;
47844;SDS011;33605;48.822;8.796;2022-08-19T13:43:59;8.17;;;7.47;;
47844;SDS011;33605;48.822;8.796;2022-08-19T13:46:25;8.67;;;7.90;;
47844;SDS011;33605;48.822;8.796;2022-08-19T13:48:52;9.20;;;8.30;;
47844;SDS011;33605;48.822;8.796;2022-08-19T13:51:18;10.13;;;7.47;;
47844;SDS011;33605;48.822;8.796;2022-08-19T13:53:44;8.93;;;8.13;;
47844;SDS011;33605;48.822;8.796;2022-08-19T13:56:12;7.17;;;6.67;;
47844;SDS011;33605;48.822;8.796;2022-08-19T13:58:38;7.37;;;6.67;;
47844;SDS011;33605;48.822;8.796;2022-08-19T14:01:05;8.40;;;7.70;;
47844;SDS011;33605;48.822;8.796;2022-08-19T14:03:31;7.17;;;6.50;;
47844;SDS011;33605;48.822;8.796;2022-08-19T14:05:58;8.30;;;7.60;;
47844;SDS011;33605;48.822;8.796;2022-08-19T14:08:24;7.30;;;6.70;;
47844;SDS011;33605;48.822;8.796;2022-08-19T14:10:50;6.73;;;6.23;;
47844;SDS011;33605;48.822;8.796;2022-08-19T14:13:18;9.70;;;6.90;;
47844;SDS011;33605;48.822;8.796;2022-08-19T14:15:44;8.50;;;7.80;;
47844;SDS011;33605;48.822;8.796;2022-08-19T14:18:11;7.90;;;7.30;;
47844;SDS011;33605;48.822;8.796;2022-08-19T14:20:37;7.60;;;7.00;;
47844;SDS011;33605;48.822;8.796;2022-08-19T14:23:03;8.30;;;7.53;;
47844;SDS011;33605;48.822;8.796;2022-08-19T14:25:33;8.70;;;7.80;;
47844;SDS011;33605;48.822;8.796;2022-08-19T14:27:59;8.57;;;7.70;;
47844;SDS011;33605;48.822;8.796;2022-08-19T14:30:27;7.03;;;6.40;;
47844;SDS011;33605;48.822;8.796;2022-08-19T14:32:54;8.10;;;7.40;;
47844;SDS011;33605;48.822;8.796;2022-08-19T14:35:21;7.43;;;6.73;;
47844;SDS011;33605;48.822;8.796;2022-08-19T14:37:48;7.00;;;6.40;;